sensor_id;sensor_type;location;lat;lon;timestamp;P1;durP1;ratioP1;P2;durP2;ratioP2
2055;SDS011;1033;52.560;13.374;2023-05-16T00:00:45;11.40;;;10.40;;
2055;SDS011;1033;52.560;13.374;2023-05-16T00:03:15;11.53;;;9.60;;
2055;SDS011;1033;52.560;13.374;2023-05-16T00:05:45;12.40;;;11.30;;
2055;SDS011;1033;52.560;13.374;2023-05-16T00:08:14;11.37;;;10.30;;
2055;SDS011;1033;52.560;13.374;2023-05-16T00:10:43;12.73;;;11.43;;
2055;SDS011;1033;52.560;13.374;2023-05-16T00:13:12;11.97;;;10.87;;
2055;SDS011;1033;52.560;13.374;2023-05-16T00:15:43;12.80;;;10.37;;
2055;SDS011;1033;52.560;13.374;2023-05-16T00:18:12;18.33;;;10.80;;
2055;SDS011;1033;52.560;13.374;2023-05-16T00:20:42;11.43;;;10.23;;
2055;SDS011;1033;52.560;13.374;2023-05-16T00:23:11;11.90;;;10.83;;
2055;SDS011;1033;52.560;13.374;2023-05-16T00:25:40;14.00;;;11.30;;
2055;SDS011;1033;52.560;13.374;2023-05-16T00:28:10;11.30;;;10.10;;
2055;SDS011;1033;52.560;13.374;2023-05-16T00:30:39;11.73;;;10.40;;
2055;SDS011;1033;52.560;13.374;2023-05-16T00:33:09;14.03;;;10.70;;
2055;SDS011;1033;52.560;13.374;2023-05-16T00:35:38;13.23;;;11.93;;
2055;SDS011;1033;52.560;13.374;2023-05-16T00:38:07;15.90;;;11.27;;
2055;SDS011;1033;52.560;13.374;2023-05-16T00:40:36;13.77;;;12.47;;
2055;SDS011;1033;52.560;13.374;2023-05-16T00:43:08;17.83;;;12.03;;
2055;SDS011;1033;52.560;13.374;2023-05-16T00:45:37;12.30;;;11.10;;
2055;SDS011;1033;52.560;13.374;2023-05-16T00:48:06;13.73;;;11.77;;
2055;SDS011;1033;52.560;13.374;2023-05-16T00:50:37;12.93;;;11.67;;
2055;SDS011;1033;52.560;13.374;2023-05-16T00:53:06;14.20;;;12.90;;
2055;SDS011;1033;52.560;13.374;2023-05-16T00:55:35;20.77;;;13.93;;
2055;SDS011;1033;52.560;13.374;2023-05-16T00:58:06;15.23;;;13.40;;
2055;SDS011;1033;52.560;13.374;2023-05-16T01:00:38;18.10;;;14.87;;
2055;SDS011;1033;52.560;13.374;2023-05-16T01:03:07;14.57;;;13.07;;
2055;SDS011;1033;52.560;13.374;2023-05-16T01:05:38;14.90;;;13.37;;
2055;SDS011;1033;52.560;13.374;2023-05-16T01:08:07;18.30;;;13.73;;
2055;SDS011;1033;52.560;13.374;2023-05-16T01:10:38;17.90;;;14.60;;
2055;SDS011;1033;52.560;13.374;2023-05-16T01:13:17;16.53;;;14.77;;
2055;SDS011;1033;52.560;13.374;2023-05-16T01:15:57;18.53;;;16.60;;
2055;SDS011;1033;52.560;13.374;2023-05-16T01:18:33;17.07;;;15.47;;
2055;SDS011;1033;52.560;13.374;2023-05-16T01:21:17;21.07;;;15.50;;
2055;SDS011;1033;52.560;13.374;2023-05-16T01:23:59;20.87;;;17.73;;
2055;SDS011;1033;52.560;13.374;2023-05-16T01:26:38;20.17;;;16.80;;
2055;SDS011;1033;52.560;13.374;2023-05-16T01:29:08;33.43;;;19.33;;
2055;SDS011;1033;52.560;13.374;2023-05-16T01:31:37;22.23;;;18.87;;
2055;SDS011;1033;52.560;13.374;2023-05-16T01:34:06;22.40;;;18.37;;
2055;SDS011;1033;52.560;13.374;2023-05-16T01:36:38;20.13;;;17.80;;
2055;SDS011;1033;52.560;13.374;2023-05-16T01:39:14;19.23;;;16.77;;
2055;SDS011;1033;52.560;13.374;2023-05-16T01:41:51;19.50;;;17.17;;
2055;SDS011;1033;52.560;13.374;2023-05-16T01:44:30;20.30;;;17.80;;
2055;SDS011;1033;52.560;13.374;2023-05-16T01:47:05;21.80;;;18.60;;
2055;SDS011;1033;52.560;13.374;2023-05-16T01:49:42;26.53;;;18.70;;
2055;SDS011;1033;52.560;13.374;2023-05-16T01:52:19;18.60;;;16.27;;
2055;SDS011;1033;52.560;13.374;2023-05-16T01:54:54;22.97;;;17.30;;
2055;SDS011;1033;52.560;13.374;2023-05-16T01:57:27;28.10;;;16.93;;
2055;SDS011;1033;52.560;13.374;2023-05-16T01:59:57;22.03;;;16.13;;
2055;SDS011;1033;52.560;13.374;2023-05-16T02:02:26;23.40;;;16.90;;
2055;SDS011;1033;52.560;13.374;2023-05-16T02:04:55;17.33;;;15.53;;
2055;SDS011;1033;52.560;13.374;2023-05-16T02:07:24;20.63;;;15.83;;
2055;SDS011;1033;52.560;13.374;2023-05-16T02:09:53;19.50;;;17.10;;
2055;SDS011;1033;52.560;13.374;2023-05-16T02:12:22;18.03;;;16.23;;
2055;SDS011;1033;52.560;13.374;2023-05-16T02:14:52;21.00;;;17.13;;
2055;SDS011;1033;52.560;13.374;2023-05-16T02:17:21;24.83;;;16.50;;
2055;SDS011;1033;52.560;13.374;2023-05-16T02:19:50;23.80;;;17.73;;
2055;SDS011;1033;52.560;13.374;2023-05-16T02:25:15;19.87;;;17.20;;
2055;SDS011;1033;52.560;13.374;2023-05-16T02:27:44;18.70;;;16.40;;
2055;SDS011;1033;52.560;13.374;2023-05-16T02:30:14;21.93;;;15.43;;
2055;SDS011;1033;52.560;13.374;2023-05-16T02:32:43;23.98;;;18.48;;
2055;SDS011;1033;52.560;13.374;2023-05-16T02:35:12;19.47;;;16.23;;
2055;SDS011;1033;52.560;13.374;2023-05-16T02:37:42;19.70;;;17.60;;
2055;SDS011;1033;52.560;13.374;2023-05-16T02:40:11;19.97;;;15.87;;
2055;SDS011;1033;52.560;13.374;2023-05-16T02:42:40;20.73;;;17.10;;
2055;SDS011;1033;52.560;13.374;2023-05-16T02:45:09;22.50;;;17.00;;
2055;SDS011;1033;52.560;13.374;2023-05-16T02:47:40;18.98;;;16.95;;
2055;SDS011;1033;52.560;13.374;2023-05-16T02:50:09;18.43;;;16.60;;
2055;SDS011;1033;52.560;13.374;2023-05-16T02:52:38;21.90;;;17.70;;
2055;SDS011;1033;52.560;13.374;2023-05-16T02:55:08;22.40;;;19.97;;
2055;SDS011;1033;52.560;13.374;2023-05-16T02:57:47;18.30;;;16.20;;
2055;SDS011;1033;52.560;13.374;2023-05-16T03:00:17;26.30;;;18.90;;
2055;SDS011;1033;52.560;13.374;2023-05-16T03:02:48;19.83;;;17.73;;
2055;SDS011;1033;52.560;13.374;2023-05-16T03:05:17;20.43;;;16.23;;
2055;SDS011;1033;52.560;13.374;2023-05-16T03:07:46;18.70;;;16.43;;
2055;SDS011;1033;52.560;13.374;2023-05-16T03:10:16;22.47;;;16.77;;
2055;SDS011;1033;52.560;13.374;2023-05-16T03:12:45;21.17;;;18.87;;
2055;SDS011;1033;52.560;13.374;2023-05-16T03:15:14;17.83;;;15.93;;
2055;SDS011;1033;52.560;13.374;2023-05-16T03:17:43;18.30;;;16.37;;
2055;SDS011;1033;52.560;13.374;2023-05-16T03:20:13;23.13;;;17.10;;
2055;SDS011;1033;52.560;13.374;2023-05-16T03:22:42;27.53;;;18.00;;
2055;SDS011;1033;52.560;13.374;2023-05-16T03:25:11;20.77;;;17.20;;
2055;SDS011;1033;52.560;13.374;2023-05-16T03:27:40;19.67;;;17.60;;
2055;SDS011;1033;52.560;13.374;2023-05-16T03:30:09;19.80;;;16.67;;
2055;SDS011;1033;52.560;13.374;2023-05-16T03:32:40;25.33;;;21.20;;
2055;SDS011;1033;52.560;13.374;2023-05-16T03:35:09;22.35;;;17.02;;
2055;SDS011;1033;52.560;13.374;2023-05-16T03:37:39;21.03;;;17.90;;
2055;SDS011;1033;52.560;13.374;2023-05-16T03:40:08;25.60;;;19.47;;
2055;SDS011;1033;52.560;13.374;2023-05-16T03:42:38;20.37;;;18.07;;
2055;SDS011;1033;52.560;13.374;2023-05-16T03:45:07;23.00;;;19.17;;
2055;SDS011;1033;52.560;13.374;2023-05-16T03:47:36;27.57;;;19.60;;
2055;SDS011;1033;52.560;13.374;2023-05-16T03:50:06;23.43;;;19.47;;
2055;SDS011;1033;52.560;13.374;2023-05-16T03:52:36;22.23;;;18.33;;
2055;SDS011;1033;52.560;13.374;2023-05-16T03:55:07;26.40;;;21.10;;
2055;SDS011;1033;52.560;13.374;2023-05-16T03:57:36;20.80;;;17.80;;
2055;SDS011;1033;52.560;13.374;2023-05-16T04:00:05;22.40;;;18.60;;
2055;SDS011;1033;52.560;13.374;2023-05-16T04:02:39;24.52;;;18.50;;
2055;SDS011;1033;52.560;13.374;2023-05-16T04:05:10;28.43;;;19.67;;
2055;SDS011;1033;52.560;13.374;2023-05-16T04:07:39;25.77;;;21.47;;
2055;SDS011;1033;52.560;13.374;2023-05-16T04:10:10;24.13;;;20.02;;
2055;SDS011;1033;52.560;13.374;2023-05-16T04:12:39;23.80;;;20.75;;
2055;SDS011;1033;52.560;13.374;2023-05-16T04:18:04;24.83;;;20.10;;
2055;SDS011;1033;52.560;13.374;2023-05-16T04:20:33;23.37;;;18.90;;
2055;SDS011;1033;52.560;13.374;2023-05-16T04:23:02;21.67;;;19.37;;
2055;SDS011;1033;52.560;13.374;2023-05-16T04:25:32;23.20;;;18.10;;
2055;SDS011;1033;52.560;13.374;2023-05-16T04:28:01;23.50;;;18.10;;
2055;SDS011;1033;52.560;13.374;2023-05-16T04:30:31;22.33;;;17.80;;
2055;SDS011;1033;52.560;13.374;2023-05-16T04:33:00;29.20;;;19.30;;
2055;SDS011;1033;52.560;13.374;2023-05-16T04:35:28;23.03;;;20.43;;
2055;SDS011;1033;52.560;13.374;2023-05-16T04:37:58;24.65;;;18.88;;
2055;SDS011;1033;52.560;13.374;2023-05-16T04:40:27;26.53;;;18.57;;
2055;SDS011;1033;52.560;13.374;2023-05-16T04:42:58;29.67;;;19.37;;
2055;SDS011;1033;52.560;13.374;2023-05-16T04:45:27;22.93;;;17.67;;
2055;SDS011;1033;52.560;13.374;2023-05-16T04:47:55;31.67;;;19.33;;
2055;SDS011;1033;52.560;13.374;2023-05-16T04:50:24;29.20;;;18.80;;
2055;SDS011;1033;52.560;13.374;2023-05-16T04:52:53;20.85;;;16.90;;
2055;SDS011;1033;52.560;13.374;2023-05-16T04:55:22;24.47;;;18.70;;
2055;SDS011;1033;52.560;13.374;2023-05-16T04:57:52;24.73;;;19.97;;
2055;SDS011;1033;52.560;13.374;2023-05-16T05:00:23;24.10;;;18.17;;
2055;SDS011;1033;52.560;13.374;2023-05-16T05:02:53;24.30;;;19.40;;
2055;SDS011;1033;52.560;13.374;2023-05-16T05:05:24;26.80;;;19.70;;
2055;SDS011;1033;52.560;13.374;2023-05-16T05:07:57;26.23;;;20.15;;
2055;SDS011;1033;52.560;13.374;2023-05-16T05:10:37;26.70;;;20.57;;
2055;SDS011;1033;52.560;13.374;2023-05-16T05:13:16;23.75;;;18.33;;
2055;SDS011;1033;52.560;13.374;2023-05-16T05:15:48;24.53;;;19.30;;
2055;SDS011;1033;52.560;13.374;2023-05-16T05:18:20;21.00;;;17.40;;
2055;SDS011;1033;52.560;13.374;2023-05-16T05:20:53;22.23;;;17.02;;
2055;SDS011;1033;52.560;13.374;2023-05-16T05:23:37;21.47;;;18.17;;
2055;SDS011;1033;52.560;13.374;2023-05-16T05:26:08;28.63;;;18.17;;
2055;SDS011;1033;52.560;13.374;2023-05-16T05:28:40;18.97;;;15.40;;
2055;SDS011;1033;52.560;13.374;2023-05-16T05:31:24;21.70;;;16.00;;
2055;SDS011;1033;52.560;13.374;2023-05-16T05:33:53;16.33;;;14.55;;
2055;SDS011;1033;52.560;13.374;2023-05-16T05:36:26;16.35;;;14.65;;
2055;SDS011;1033;52.560;13.374;2023-05-16T05:39:00;17.23;;;15.30;;
2055;SDS011;1033;52.560;13.374;2023-05-16T05:41:30;15.17;;;11.17;;
2055;SDS011;1033;52.560;13.374;2023-05-16T05:44:01;17.93;;;14.87;;
2055;SDS011;1033;52.560;13.374;2023-05-16T05:46:33;19.57;;;14.20;;
2055;SDS011;1033;52.560;13.374;2023-05-16T05:49:02;16.87;;;12.77;;
2055;SDS011;1033;52.560;13.374;2023-05-16T05:51:32;17.73;;;14.60;;
2055;SDS011;1033;52.560;13.374;2023-05-16T05:54:01;17.70;;;13.80;;
2055;SDS011;1033;52.560;13.374;2023-05-16T05:56:30;14.70;;;12.70;;
2055;SDS011;1033;52.560;13.374;2023-05-16T05:59:00;16.50;;;12.30;;
2055;SDS011;1033;52.560;13.374;2023-05-16T06:04:24;16.33;;;13.82;;
2055;SDS011;1033;52.560;13.374;2023-05-16T06:06:56;22.80;;;13.60;;
2055;SDS011;1033;52.560;13.374;2023-05-16T06:09:39;13.43;;;11.57;;
2055;SDS011;1033;52.560;13.374;2023-05-16T06:12:09;17.20;;;12.57;;
2055;SDS011;1033;52.560;13.374;2023-05-16T06:14:38;13.50;;;12.10;;
2055;SDS011;1033;52.560;13.374;2023-05-16T06:17:08;15.05;;;12.35;;
2055;SDS011;1033;52.560;13.374;2023-05-16T06:19:39;24.30;;;18.53;;
2055;SDS011;1033;52.560;13.374;2023-05-16T06:22:08;14.73;;;12.33;;
2055;SDS011;1033;52.560;13.374;2023-05-16T06:24:38;13.83;;;11.07;;
2055;SDS011;1033;52.560;13.374;2023-05-16T06:27:07;11.37;;;9.43;;
2055;SDS011;1033;52.560;13.374;2023-05-16T06:32:38;13.20;;;10.65;;
2055;SDS011;1033;52.560;13.374;2023-05-16T06:35:11;14.20;;;9.70;;
2055;SDS011;1033;52.560;13.374;2023-05-16T06:37:40;15.27;;;13.17;;
2055;SDS011;1033;52.560;13.374;2023-05-16T06:40:09;12.93;;;10.90;;
2055;SDS011;1033;52.560;13.374;2023-05-16T06:42:39;12.52;;;11.25;;
2055;SDS011;1033;52.560;13.374;2023-05-16T06:46:07;11.43;;;9.33;;
2055;SDS011;1033;52.560;13.374;2023-05-16T06:48:41;18.37;;;12.07;;
2055;SDS011;1033;52.560;13.374;2023-05-16T06:51:14;13.40;;;10.00;;
2055;SDS011;1033;52.560;13.374;2023-05-16T06:53:43;12.97;;;9.27;;
2055;SDS011;1033;52.560;13.374;2023-05-16T06:56:13;12.30;;;9.30;;
2055;SDS011;1033;52.560;13.374;2023-05-16T06:58:42;9.97;;;9.07;;
2055;SDS011;1033;52.560;13.374;2023-05-16T07:01:12;11.10;;;7.37;;
2055;SDS011;1033;52.560;13.374;2023-05-16T07:03:43;8.83;;;7.93;;
2055;SDS011;1033;52.560;13.374;2023-05-16T07:06:12;11.73;;;8.63;;
2055;SDS011;1033;52.560;13.374;2023-05-16T07:08:41;11.63;;;8.60;;
2055;SDS011;1033;52.560;13.374;2023-05-16T07:11:11;12.17;;;8.30;;
2055;SDS011;1033;52.560;13.374;2023-05-16T07:13:40;8.33;;;7.43;;
2055;SDS011;1033;52.560;13.374;2023-05-16T07:16:09;11.50;;;8.40;;
2055;SDS011;1033;52.560;13.374;2023-05-16T07:18:38;11.40;;;7.43;;
2055;SDS011;1033;52.560;13.374;2023-05-16T07:21:09;9.10;;;7.50;;
2055;SDS011;1033;52.560;13.374;2023-05-16T07:23:38;7.07;;;6.27;;
2055;SDS011;1033;52.560;13.374;2023-05-16T07:26:09;6.50;;;5.40;;
2055;SDS011;1033;52.560;13.374;2023-05-16T07:28:38;13.73;;;7.20;;
2055;SDS011;1033;52.560;13.374;2023-05-16T07:31:09;7.90;;;6.37;;
2055;SDS011;1033;52.560;13.374;2023-05-16T07:33:40;8.57;;;5.80;;
2055;SDS011;1033;52.560;13.374;2023-05-16T07:36:12;5.70;;;4.40;;
2055;SDS011;1033;52.560;13.374;2023-05-16T07:38:43;7.57;;;5.20;;
2055;SDS011;1033;52.560;13.374;2023-05-16T07:41:13;9.10;;;6.07;;
2055;SDS011;1033;52.560;13.374;2023-05-16T07:43:43;5.80;;;4.90;;
2055;SDS011;1033;52.560;13.374;2023-05-16T07:46:14;11.30;;;5.00;;
2055;SDS011;1033;52.560;13.374;2023-05-16T07:48:49;5.53;;;4.90;;
2055;SDS011;1033;52.560;13.374;2023-05-16T07:51:21;6.60;;;4.33;;
2055;SDS011;1033;52.560;13.374;2023-05-16T07:53:58;6.90;;;4.87;;
2055;SDS011;1033;52.560;13.374;2023-05-16T07:56:58;6.93;;;4.17;;
2055;SDS011;1033;52.560;13.374;2023-05-16T07:59:29;5.63;;;4.70;;
2055;SDS011;1033;52.560;13.374;2023-05-16T08:02:04;8.10;;;5.40;;
2055;SDS011;1033;52.560;13.374;2023-05-16T08:04:35;7.13;;;5.10;;
2055;SDS011;1033;52.560;13.374;2023-05-16T08:07:09;5.73;;;3.77;;
2055;SDS011;1033;52.560;13.374;2023-05-16T08:09:40;6.97;;;4.60;;
2055;SDS011;1033;52.560;13.374;2023-05-16T08:12:10;6.13;;;5.27;;
2055;SDS011;1033;52.560;13.374;2023-05-16T08:14:39;5.63;;;4.63;;
2055;SDS011;1033;52.560;13.374;2023-05-16T08:17:09;7.93;;;4.50;;
2055;SDS011;1033;52.560;13.374;2023-05-16T08:19:42;6.57;;;5.03;;
2055;SDS011;1033;52.560;13.374;2023-05-16T08:22:16;7.07;;;3.90;;
2055;SDS011;1033;52.560;13.374;2023-05-16T08:24:46;6.33;;;3.67;;
2055;SDS011;1033;52.560;13.374;2023-05-16T08:27:27;8.57;;;4.00;;
2055;SDS011;1033;52.560;13.374;2023-05-16T08:30:10;6.47;;;3.90;;
2055;SDS011;1033;52.560;13.374;2023-05-16T08:33:01;3.80;;;2.80;;
2055;SDS011;1033;52.560;13.374;2023-05-16T08:35:41;4.10;;;2.93;;
2055;SDS011;1033;52.560;13.374;2023-05-16T08:38:26;2.83;;;2.63;;
2055;SDS011;1033;52.560;13.374;2023-05-16T08:40:55;8.87;;;3.33;;
2055;SDS011;1033;52.560;13.374;2023-05-16T08:43:24;3.60;;;2.90;;
2055;SDS011;1033;52.560;13.374;2023-05-16T08:45:54;7.37;;;4.37;;
2055;SDS011;1033;52.560;13.374;2023-05-16T08:48:23;5.83;;;3.17;;
2055;SDS011;1033;52.560;13.374;2023-05-16T08:50:55;4.17;;;3.17;;
2055;SDS011;1033;52.560;13.374;2023-05-16T08:53:31;5.60;;;3.90;;
2055;SDS011;1033;52.560;13.374;2023-05-16T08:56:07;4.20;;;2.80;;
2055;SDS011;1033;52.560;13.374;2023-05-16T08:58:39;6.23;;;2.43;;
2055;SDS011;1033;52.560;13.374;2023-05-16T09:01:09;2.70;;;1.83;;
2055;SDS011;1033;52.560;13.374;2023-05-16T09:03:39;7.73;;;3.17;;
2055;SDS011;1033;52.560;13.374;2023-05-16T09:06:10;3.80;;;2.87;;
2055;SDS011;1033;52.560;13.374;2023-05-16T09:08:40;3.30;;;2.70;;
2055;SDS011;1033;52.560;13.374;2023-05-16T09:11:10;5.43;;;2.43;;
2055;SDS011;1033;52.560;13.374;2023-05-16T09:13:39;3.47;;;2.30;;
2055;SDS011;1033;52.560;13.374;2023-05-16T09:16:09;4.13;;;3.33;;
2055;SDS011;1033;52.560;13.374;2023-05-16T09:18:39;3.27;;;1.73;;
2055;SDS011;1033;52.560;13.374;2023-05-16T09:21:11;4.37;;;2.67;;
2055;SDS011;1033;52.560;13.374;2023-05-16T09:23:42;5.33;;;2.80;;
2055;SDS011;1033;52.560;13.374;2023-05-16T09:26:12;7.63;;;3.03;;
2055;SDS011;1033;52.560;13.374;2023-05-16T09:28:42;5.47;;;2.10;;
2055;SDS011;1033;52.560;13.374;2023-05-16T09:31:21;5.43;;;3.00;;
2055;SDS011;1033;52.560;13.374;2023-05-16T09:33:53;3.80;;;2.87;;
2055;SDS011;1033;52.560;13.374;2023-05-16T09:36:25;8.07;;;3.37;;
2055;SDS011;1033;52.560;13.374;2023-05-16T09:39:00;3.63;;;1.93;;
2055;SDS011;1033;52.560;13.374;2023-05-16T09:41:31;6.17;;;2.73;;
2055;SDS011;1033;52.560;13.374;2023-05-16T09:44:02;5.60;;;2.10;;
2055;SDS011;1033;52.560;13.374;2023-05-16T09:46:33;2.37;;;1.77;;
2055;SDS011;1033;52.560;13.374;2023-05-16T09:49:02;5.10;;;2.70;;
2055;SDS011;1033;52.560;13.374;2023-05-16T09:51:34;7.60;;;2.33;;
2055;SDS011;1033;52.560;13.374;2023-05-16T09:54:07;5.13;;;2.63;;
2055;SDS011;1033;52.560;13.374;2023-05-16T09:56:47;3.20;;;2.30;;
2055;SDS011;1033;52.560;13.374;2023-05-16T09:59:17;6.00;;;2.30;;
2055;SDS011;1033;52.560;13.374;2023-05-16T10:01:52;6.57;;;2.73;;
2055;SDS011;1033;52.560;13.374;2023-05-16T10:04:25;2.67;;;2.33;;
2055;SDS011;1033;52.560;13.374;2023-05-16T10:06:55;4.20;;;2.47;;
2055;SDS011;1033;52.560;13.374;2023-05-16T10:09:34;5.97;;;2.13;;
2055;SDS011;1033;52.560;13.374;2023-05-16T10:12:14;5.30;;;2.80;;
2055;SDS011;1033;52.560;13.374;2023-05-16T10:15:02;4.50;;;3.13;;
2055;SDS011;1033;52.560;13.374;2023-05-16T10:17:33;6.63;;;2.80;;
2055;SDS011;1033;52.560;13.374;2023-05-16T10:20:05;5.07;;;1.97;;
2055;SDS011;1033;52.560;13.374;2023-05-16T10:22:39;9.97;;;2.63;;
2055;SDS011;1033;52.560;13.374;2023-05-16T10:25:14;6.10;;;3.77;;
2055;SDS011;1033;52.560;13.374;2023-05-16T10:27:52;4.63;;;3.17;;
2055;SDS011;1033;52.560;13.374;2023-05-16T10:30:30;4.90;;;2.87;;
2055;SDS011;1033;52.560;13.374;2023-05-16T10:33:00;9.73;;;3.20;;
2055;SDS011;1033;52.560;13.374;2023-05-16T10:35:30;4.57;;;2.50;;
2055;SDS011;1033;52.560;13.374;2023-05-16T10:38:03;11.30;;;3.77;;
2055;SDS011;1033;52.560;13.374;2023-05-16T10:40:35;10.40;;;3.67;;
2055;SDS011;1033;52.560;13.374;2023-05-16T10:43:06;11.37;;;3.67;;
2055;SDS011;1033;52.560;13.374;2023-05-16T10:45:38;8.43;;;2.70;;
2055;SDS011;1033;52.560;13.374;2023-05-16T10:48:12;5.97;;;3.73;;
2055;SDS011;1033;52.560;13.374;2023-05-16T10:50:44;7.97;;;4.27;;
2055;SDS011;1033;52.560;13.374;2023-05-16T10:53:19;7.90;;;4.03;;
2055;SDS011;1033;52.560;13.374;2023-05-16T10:56:04;5.40;;;3.17;;
2055;SDS011;1033;52.560;13.374;2023-05-16T10:58:46;6.03;;;3.50;;
2055;SDS011;1033;52.560;13.374;2023-05-16T11:01:19;8.10;;;3.47;;
2055;SDS011;1033;52.560;13.374;2023-05-16T11:04:10;10.23;;;3.37;;
2055;SDS011;1033;52.560;13.374;2023-05-16T11:06:57;4.77;;;2.97;;
2055;SDS011;1033;52.560;13.374;2023-05-16T11:09:28;7.70;;;2.90;;
2055;SDS011;1033;52.560;13.374;2023-05-16T11:12:04;9.10;;;2.87;;
2055;SDS011;1033;52.560;13.374;2023-05-16T11:14:40;6.53;;;2.30;;
2055;SDS011;1033;52.560;13.374;2023-05-16T11:17:30;8.30;;;2.40;;
2055;SDS011;1033;52.560;13.374;2023-05-16T11:20:23;6.13;;;2.70;;
2055;SDS011;1033;52.560;13.374;2023-05-16T11:25:51;7.20;;;2.37;;
2055;SDS011;1033;52.560;13.374;2023-05-16T11:28:24;4.97;;;2.50;;
2055;SDS011;1033;52.560;13.374;2023-05-16T11:31:01;5.23;;;2.60;;
2055;SDS011;1033;52.560;13.374;2023-05-16T11:33:48;12.13;;;2.80;;
2055;SDS011;1033;52.560;13.374;2023-05-16T11:36:20;8.37;;;2.23;;
2055;SDS011;1033;52.560;13.374;2023-05-16T11:39:06;5.43;;;2.33;;
2055;SDS011;1033;52.560;13.374;2023-05-16T11:41:52;6.20;;;2.23;;
2055;SDS011;1033;52.560;13.374;2023-05-16T11:44:36;6.30;;;2.43;;
2055;SDS011;1033;52.560;13.374;2023-05-16T11:47:25;11.03;;;2.80;;
2055;SDS011;1033;52.560;13.374;2023-05-16T11:49:56;9.10;;;2.47;;
2055;SDS011;1033;52.560;13.374;2023-05-16T11:52:29;14.13;;;3.67;;
2055;SDS011;1033;52.560;13.374;2023-05-16T11:55:07;9.73;;;2.53;;
2055;SDS011;1033;52.560;13.374;2023-05-16T11:57:44;11.47;;;2.97;;
2055;SDS011;1033;52.560;13.374;2023-05-16T12:00:16;5.43;;;2.23;;
2055;SDS011;1033;52.560;13.374;2023-05-16T12:02:47;5.10;;;3.30;;
2055;SDS011;1033;52.560;13.374;2023-05-16T12:05:17;10.83;;;2.97;;
2055;SDS011;1033;52.560;13.374;2023-05-16T12:07:51;7.53;;;3.37;;
2055;SDS011;1033;52.560;13.374;2023-05-16T12:10:21;7.30;;;3.07;;
2055;SDS011;1033;52.560;13.374;2023-05-16T12:12:54;6.43;;;2.50;;
2055;SDS011;1033;52.560;13.374;2023-05-16T12:15:32;10.20;;;2.67;;
2055;SDS011;1033;52.560;13.374;2023-05-16T12:18:05;6.03;;;2.30;;
2055;SDS011;1033;52.560;13.374;2023-05-16T12:20:38;5.33;;;2.37;;
2055;SDS011;1033;52.560;13.374;2023-05-16T12:23:10;6.23;;;2.80;;
2055;SDS011;1033;52.560;13.374;2023-05-16T12:25:44;4.30;;;2.13;;
2055;SDS011;1033;52.560;13.374;2023-05-16T12:28:15;4.77;;;1.93;;
2055;SDS011;1033;52.560;13.374;2023-05-16T12:30:56;7.23;;;2.73;;
2055;SDS011;1033;52.560;13.374;2023-05-16T12:33:26;4.53;;;1.90;;
2055;SDS011;1033;52.560;13.374;2023-05-16T12:35:55;11.50;;;2.20;;
2055;SDS011;1033;52.560;13.374;2023-05-16T12:38:27;7.93;;;2.00;;
2055;SDS011;1033;52.560;13.374;2023-05-16T12:40:57;4.80;;;1.90;;
2055;SDS011;1033;52.560;13.374;2023-05-16T12:43:26;5.67;;;2.20;;
2055;SDS011;1033;52.560;13.374;2023-05-16T12:45:57;5.10;;;2.03;;
2055;SDS011;1033;52.560;13.374;2023-05-16T12:48:30;11.30;;;2.33;;
2055;SDS011;1033;52.560;13.374;2023-05-16T12:51:10;4.57;;;2.37;;
2055;SDS011;1033;52.560;13.374;2023-05-16T12:53:41;6.73;;;1.93;;
2055;SDS011;1033;52.560;13.374;2023-05-16T12:56:27;12.40;;;3.07;;
2055;SDS011;1033;52.560;13.374;2023-05-16T12:58:56;6.33;;;1.57;;
2055;SDS011;1033;52.560;13.374;2023-05-16T13:01:27;9.77;;;1.97;;
2055;SDS011;1033;52.560;13.374;2023-05-16T13:03:56;6.80;;;2.30;;
2055;SDS011;1033;52.560;13.374;2023-05-16T13:06:25;4.20;;;1.53;;
2055;SDS011;1033;52.560;13.374;2023-05-16T13:09:10;3.63;;;1.33;;
2055;SDS011;1033;52.560;13.374;2023-05-16T13:11:41;10.47;;;1.83;;
2055;SDS011;1033;52.560;13.374;2023-05-16T13:14:10;4.90;;;2.00;;
2055;SDS011;1033;52.560;13.374;2023-05-16T13:16:41;2.43;;;1.20;;
2055;SDS011;1033;52.560;13.374;2023-05-16T13:19:10;10.03;;;1.73;;
2055;SDS011;1033;52.560;13.374;2023-05-16T13:21:39;3.77;;;1.80;;
2055;SDS011;1033;52.560;13.374;2023-05-16T13:24:08;9.03;;;2.47;;
2055;SDS011;1033;52.560;13.374;2023-05-16T13:26:37;10.63;;;3.30;;
2055;SDS011;1033;52.560;13.374;2023-05-16T13:29:07;6.30;;;2.50;;
2055;SDS011;1033;52.560;13.374;2023-05-16T13:31:37;7.07;;;1.93;;
2055;SDS011;1033;52.560;13.374;2023-05-16T13:34:08;4.10;;;1.40;;
2055;SDS011;1033;52.560;13.374;2023-05-16T13:36:37;2.63;;;1.53;;
2055;SDS011;1033;52.560;13.374;2023-05-16T13:39:19;4.37;;;2.27;;
2055;SDS011;1033;52.560;13.374;2023-05-16T13:41:49;4.83;;;1.77;;
2055;SDS011;1033;52.560;13.374;2023-05-16T13:44:18;5.93;;;1.80;;
2055;SDS011;1033;52.560;13.374;2023-05-16T13:46:48;6.57;;;2.00;;
2055;SDS011;1033;52.560;13.374;2023-05-16T13:49:18;5.17;;;1.80;;
2055;SDS011;1033;52.560;13.374;2023-05-16T13:51:49;6.03;;;2.27;;
2055;SDS011;1033;52.560;13.374;2023-05-16T13:54:18;6.67;;;2.17;;
2055;SDS011;1033;52.560;13.374;2023-05-16T13:56:48;5.20;;;1.23;;
2055;SDS011;1033;52.560;13.374;2023-05-16T13:59:17;3.40;;;1.90;;
2055;SDS011;1033;52.560;13.374;2023-05-16T14:02:06;4.80;;;1.77;;
2055;SDS011;1033;52.560;13.374;2023-05-16T14:04:37;12.43;;;2.00;;
2055;SDS011;1033;52.560;13.374;2023-05-16T14:07:06;5.47;;;2.00;;
2055;SDS011;1033;52.560;13.374;2023-05-16T14:09:36;5.07;;;1.40;;
2055;SDS011;1033;52.560;13.374;2023-05-16T14:12:06;11.77;;;3.23;;
2055;SDS011;1033;52.560;13.374;2023-05-16T14:14:36;4.37;;;1.43;;
2055;SDS011;1033;52.560;13.374;2023-05-16T14:17:05;5.90;;;1.83;;
2055;SDS011;1033;52.560;13.374;2023-05-16T14:19:34;9.97;;;2.30;;
2055;SDS011;1033;52.560;13.374;2023-05-16T14:22:05;2.87;;;1.40;;
2055;SDS011;1033;52.560;13.374;2023-05-16T14:24:34;4.53;;;1.70;;
2055;SDS011;1033;52.560;13.374;2023-05-16T14:27:04;4.83;;;1.60;;
2055;SDS011;1033;52.560;13.374;2023-05-16T14:29:33;9.67;;;2.40;;
2055;SDS011;1033;52.560;13.374;2023-05-16T14:32:03;4.90;;;2.20;;
2055;SDS011;1033;52.560;13.374;2023-05-16T14:34:33;2.90;;;1.23;;
2055;SDS011;1033;52.560;13.374;2023-05-16T14:37:02;3.70;;;1.20;;
2055;SDS011;1033;52.560;13.374;2023-05-16T14:39:33;4.30;;;1.47;;
2055;SDS011;1033;52.560;13.374;2023-05-16T14:42:03;4.63;;;1.80;;
2055;SDS011;1033;52.560;13.374;2023-05-16T14:44:34;4.70;;;1.97;;
2055;SDS011;1033;52.560;13.374;2023-05-16T14:47:03;6.87;;;1.90;;
2055;SDS011;1033;52.560;13.374;2023-05-16T14:49:33;5.97;;;1.70;;
2055;SDS011;1033;52.560;13.374;2023-05-16T14:52:02;5.87;;;2.10;;
2055;SDS011;1033;52.560;13.374;2023-05-16T14:54:33;5.20;;;1.90;;
2055;SDS011;1033;52.560;13.374;2023-05-16T14:57:03;5.63;;;2.07;;
2055;SDS011;1033;52.560;13.374;2023-05-16T14:59:33;3.80;;;1.63;;
2055;SDS011;1033;52.560;13.374;2023-05-16T15:02:02;3.80;;;1.43;;
2055;SDS011;1033;52.560;13.374;2023-05-16T15:04:32;5.67;;;1.60;;
2055;SDS011;1033;52.560;13.374;2023-05-16T15:07:01;4.90;;;2.37;;
2055;SDS011;1033;52.560;13.374;2023-05-16T15:09:32;1.67;;;1.00;;
2055;SDS011;1033;52.560;13.374;2023-05-16T15:12:01;6.90;;;1.60;;
2055;SDS011;1033;52.560;13.374;2023-05-16T15:14:31;3.37;;;1.30;;
2055;SDS011;1033;52.560;13.374;2023-05-16T15:17:01;4.10;;;1.43;;
2055;SDS011;1033;52.560;13.374;2023-05-16T15:19:34;2.30;;;1.00;;
2055;SDS011;1033;52.560;13.374;2023-05-16T15:22:03;8.00;;;2.50;;
2055;SDS011;1033;52.560;13.374;2023-05-16T15:24:35;5.87;;;2.57;;
2055;SDS011;1033;52.560;13.374;2023-05-16T15:27:05;5.40;;;1.33;;
2055;SDS011;1033;52.560;13.374;2023-05-16T15:29:34;8.90;;;2.10;;
2055;SDS011;1033;52.560;13.374;2023-05-16T15:32:03;5.33;;;1.90;;